createdAt,value
2018-12-08T00:02:05.822Z,6.66
2018-12-08T00:08:28.132Z,6.60
2018-12-08T00:11:32.931Z,6.58
2018-12-08T00:14:37.918Z,6.61
2018-12-08T00:17:42.822Z,6.60
2018-12-08T00:24:41.704Z,6.60
2018-12-08T00:27:46.250Z,6.60
2018-12-08T00:31:07.692Z,6.57
2018-12-08T00:34:13.912Z,6.55
2018-12-08T00:37:18.633Z,6.51
2018-12-08T00:40:23.069Z,6.50
2018-12-08T00:46:47.234Z,6.47
2018-12-08T00:49:55.722Z,6.53
2018-12-08T00:53:00.665Z,6.63
2018-12-08T00:56:05.599Z,6.64
2018-12-08T00:59:10.408Z,6.63
2018-12-08T01:02:15.100Z,6.59
2018-12-08T01:05:19.644Z,6.49
2018-12-08T01:08:24.521Z,6.52
2018-12-08T01:11:29.088Z,6.48
2018-12-08T01:14:34.424Z,6.52
2018-12-08T01:17:39.141Z,6.59
2018-12-08T01:20:43.618Z,6.55
2018-12-08T01:27:06.513Z,6.51
2018-12-08T01:30:14.930Z,6.53
2018-12-08T01:33:20.275Z,6.52
2018-12-08T01:36:27.719Z,6.60
2018-12-08T01:39:32.215Z,6.57
2018-12-08T01:42:36.776Z,6.40
2018-12-08T01:48:59.362Z,6.13
2018-12-08T01:52:03.932Z,6.06
2018-12-08T01:55:08.869Z,5.94
2018-12-08T01:58:14.908Z,5.91
2018-12-08T02:01:19.661Z,5.79
2018-12-08T02:04:24.597Z,5.64
2018-12-08T02:07:29.498Z,5.58
2018-12-08T02:10:37.428Z,5.51
2018-12-08T02:13:42.090Z,5.52
2018-12-08T02:16:46.998Z,5.53
2018-12-08T02:19:51.521Z,5.49
2018-12-08T02:22:56.299Z,5.49
2018-12-08T02:26:03.035Z,5.51
2018-12-08T02:29:07.614Z,5.50
2018-12-08T02:32:14.147Z,5.49
2018-12-08T02:38:42.274Z,5.74
2018-12-08T02:45:00.629Z,5.94
2018-12-08T02:51:42.162Z,6.20
2018-12-08T02:54:46.895Z,6.24
2018-12-08T02:58:24.865Z,6.30
2018-12-08T03:01:29.996Z,6.35
2018-12-08T03:04:34.961Z,6.32
2018-12-08T03:07:39.658Z,6.33
2018-12-08T03:10:44.445Z,6.30
2018-12-08T03:13:50.354Z,6.25
2018-12-08T03:16:55.162Z,6.17
2018-12-08T03:19:59.981Z,6.24
2018-12-08T03:23:04.577Z,6.26
2018-12-08T03:26:09.110Z,6.30
2018-12-08T03:32:58.069Z,6.36
2018-12-08T03:36:03.100Z,6.34
2018-12-08T03:39:09.975Z,6.28
2018-12-08T03:42:14.704Z,6.27
2018-12-08T03:45:19.985Z,6.26
2018-12-08T03:48:28.821Z,6.19
2018-12-08T03:51:33.599Z,6.20
2018-12-08T03:57:52.152Z,6.20
2018-12-08T04:00:56.735Z,6.25
2018-12-08T04:04:01.849Z,6.33
2018-12-08T04:07:06.562Z,6.38
2018-12-08T04:10:11.354Z,6.38
2018-12-08T04:13:16.669Z,6.34
2018-12-08T04:16:21.405Z,6.27
2018-12-08T04:19:26.139Z,6.14
2018-12-08T04:22:30.717Z,6.01
2018-12-08T04:25:35.477Z,6.01
2018-12-08T04:28:45.567Z,5.89
2018-12-08T04:35:09.839Z,5.85
2018-12-08T04:41:33.499Z,5.74
2018-12-08T04:44:38.145Z,5.73
2018-12-08T04:47:42.867Z,5.66
2018-12-08T04:50:52.358Z,5.65
2018-12-08T04:53:58.399Z,5.63
2018-12-08T05:00:15.267Z,5.59
2018-12-08T05:03:19.905Z,5.61
2018-12-08T05:06:28.759Z,5.60
2018-12-08T05:13:02.049Z,5.64
2018-12-08T05:16:06.763Z,5.73
2018-12-08T05:19:11.263Z,5.82
2018-12-08T05:22:15.889Z,5.82
2018-12-08T05:25:22.474Z,5.93
2018-12-08T05:28:27.096Z,5.95
2018-12-08T05:31:31.599Z,6.02
2018-12-08T05:34:36.100Z,6.11
2018-12-08T05:40:56.416Z,6.20
2018-12-08T05:44:01.001Z,6.25
2018-12-08T05:47:06.165Z,6.30
2018-12-08T05:50:10.863Z,6.25
2018-12-08T05:53:15.757Z,6.25
2018-12-08T05:56:20.773Z,6.31
2018-12-08T05:59:25.552Z,6.27
2018-12-08T06:05:45.197Z,6.31
2018-12-08T06:08:49.802Z,6.31
2018-12-08T06:15:12.030Z,6.40
2018-12-08T06:18:16.865Z,6.45
2018-12-08T06:21:37.823Z,6.49
2018-12-08T06:24:42.256Z,6.45
2018-12-08T06:28:38.956Z,6.55
2018-12-08T06:31:48.465Z,6.59
2018-12-08T06:34:53.837Z,6.62
2018-12-08T06:41:11.974Z,6.63
2018-12-08T06:44:16.894Z,6.65
2018-12-08T06:47:22.847Z,6.64
2018-12-08T06:50:28.402Z,6.70
2018-12-08T06:53:32.938Z,6.69
2018-12-08T06:59:53.532Z,6.75
2018-12-08T07:02:58.807Z,6.78
2018-12-08T07:06:03.223Z,6.81
2018-12-08T07:09:08.912Z,6.87
2018-12-08T07:12:15.099Z,6.89
2018-12-08T07:15:24.140Z,6.90
2018-12-08T07:21:43.256Z,6.96
2018-12-08T07:24:47.799Z,6.89
2018-12-08T07:27:52.368Z,6.88
2018-12-08T07:30:58.172Z,6.75
2018-12-08T07:34:02.804Z,6.72
2018-12-08T07:37:08.062Z,6.67
2018-12-08T07:40:12.981Z,6.69
2018-12-08T07:43:17.498Z,6.81
2018-12-08T07:46:21.985Z,6.89
2018-12-08T07:49:26.546Z,7.00
2018-12-08T07:52:31.255Z,7.02
2018-12-08T07:55:36.070Z,7.01
2018-12-08T07:58:40.875Z,6.92
2018-12-08T08:01:46.987Z,6.90
2018-12-08T08:04:51.530Z,6.79
2018-12-08T08:07:56.293Z,6.79
2018-12-08T08:14:16.142Z,6.78
2018-12-08T08:17:21.087Z,6.77
2018-12-08T08:20:25.610Z,6.84
2018-12-08T08:23:30.222Z,6.82
2018-12-08T08:29:56.322Z,6.88
2018-12-08T08:33:01.016Z,6.90
2018-12-08T08:36:06.582Z,6.94
2018-12-08T08:42:26.050Z,6.93
2018-12-08T08:45:32.548Z,6.95
2018-12-08T08:48:40.211Z,6.99
2018-12-08T08:51:44.788Z,6.99
2018-12-08T08:54:51.097Z,7.00
2018-12-08T08:57:55.611Z,7.13
2018-12-08T09:01:01.893Z,7.17
2018-12-08T09:04:07.330Z,7.17
2018-12-08T09:07:11.960Z,7.25
2018-12-08T09:10:16.433Z,7.31
2018-12-08T09:13:21.106Z,7.29
2018-12-08T09:16:26.274Z,7.33
2018-12-08T09:19:31.421Z,7.34
2018-12-08T09:22:37.287Z,7.41
2018-12-08T09:25:43.474Z,7.52
2018-12-08T09:28:57.448Z,7.38
2018-12-08T09:32:02.326Z,7.28
2018-12-08T09:35:08.433Z,7.19
2018-12-08T09:38:15.619Z,7.17
2018-12-08T09:41:21.599Z,7.18
2018-12-08T09:44:26.374Z,7.12
2018-12-08T09:47:30.925Z,7.14
2018-12-08T09:50:41.352Z,7.23
2018-12-08T09:53:45.799Z,7.12
2018-12-08T09:56:50.768Z,7.14
2018-12-08T10:03:12.519Z,7.12
2018-12-08T10:09:34.380Z,7.08
2018-12-08T10:16:04.354Z,7.24
2018-12-08T10:19:08.896Z,7.27
2018-12-08T10:22:13.408Z,7.36
2018-12-08T10:25:18.399Z,7.32
2018-12-08T10:28:23.894Z,7.30
2018-12-08T10:31:29.481Z,7.31
2018-12-08T10:34:35.484Z,7.42
2018-12-08T10:37:41.565Z,7.44
2018-12-08T10:40:46.604Z,7.51
2018-12-08T10:43:51.245Z,7.55
2018-12-08T10:46:56.235Z,7.58
2018-12-08T10:50:01.698Z,7.58
2018-12-08T10:56:33.707Z,7.72
2018-12-08T10:59:39.250Z,7.71
2018-12-08T11:02:51.025Z,7.71
2018-12-08T11:06:02.394Z,7.66
2018-12-08T11:09:08.722Z,7.67
2018-12-08T11:12:13.849Z,7.73
2018-12-08T11:15:18.982Z,7.74
2018-12-08T11:18:23.425Z,7.78
2018-12-08T11:24:55.052Z,7.77
2018-12-08T11:28:00.325Z,7.82
2018-12-08T11:34:19.534Z,7.89
2018-12-08T11:37:24.027Z,7.92
2018-12-08T11:40:29.291Z,7.98
2018-12-08T11:43:42.256Z,7.96
2018-12-08T11:46:53.784Z,7.98
2018-12-08T11:49:59.356Z,7.99
2018-12-08T11:58:35.137Z,7.88
2018-12-08T12:01:39.894Z,8.00
2018-12-08T12:04:49.029Z,7.99
2018-12-08T12:07:57.018Z,8.04
2018-12-08T12:14:22.082Z,7.95
2018-12-08T12:17:29.818Z,7.90
2018-12-08T12:20:34.169Z,7.92
2018-12-08T12:23:38.594Z,7.93
2018-12-08T12:26:43.511Z,7.86
2018-12-08T12:29:55.330Z,7.77
2018-12-08T12:32:59.658Z,7.86
2018-12-08T12:36:04.116Z,7.81
2018-12-08T12:39:09.803Z,7.82
2018-12-08T12:42:14.691Z,7.85
2018-12-08T12:45:19.104Z,7.79
2018-12-08T12:48:27.207Z,7.80
2018-12-08T12:51:31.725Z,7.82
2018-12-08T12:54:36.401Z,7.82
2018-12-08T12:57:40.786Z,7.85
2018-12-08T13:00:45.541Z,7.83
2018-12-08T13:03:51.341Z,7.89
2018-12-08T13:06:56.094Z,7.84
2018-12-08T13:10:00.531Z,7.79
2018-12-08T13:13:07.091Z,7.74
2018-12-08T13:16:13.208Z,7.69
2018-12-08T13:19:18.424Z,7.66
2018-12-08T13:22:22.787Z,7.65
2018-12-08T13:25:27.898Z,7.73
2018-12-08T13:28:32.284Z,7.76
2018-12-08T13:31:36.642Z,7.76
2018-12-08T13:34:41.040Z,7.76
2018-12-08T13:37:45.481Z,7.73
2018-12-08T13:40:51.329Z,7.69
2018-12-08T13:47:12.622Z,7.70
2018-12-08T13:50:17.463Z,7.73
2018-12-08T13:53:22.508Z,7.70
2018-12-08T13:59:56.648Z,7.74
2018-12-08T14:03:05.059Z,7.76
2018-12-08T14:09:30.061Z,7.57
2018-12-08T14:12:34.572Z,7.59
2018-12-08T14:16:08.654Z,7.59
2018-12-08T14:19:14.038Z,7.61
2018-12-08T14:22:18.738Z,7.63
2018-12-08T14:25:23.698Z,7.69
2018-12-08T14:28:28.774Z,7.72
2018-12-08T14:31:34.193Z,7.75
2018-12-08T14:37:56.485Z,7.73
2018-12-08T14:44:16.556Z,7.57
2018-12-08T14:47:21.928Z,7.49
2018-12-08T14:50:26.663Z,7.46
2018-12-08T14:53:31.440Z,7.52
2018-12-08T14:56:37.547Z,7.56
2018-12-08T14:59:43.579Z,7.54
2018-12-08T15:02:48.328Z,7.66
2018-12-08T15:05:56.735Z,7.69
2018-12-08T15:09:01.241Z,7.68
2018-12-08T15:15:22.657Z,7.68
2018-12-08T15:18:27.367Z,7.70
2018-12-08T15:21:32.127Z,7.75
2018-12-08T15:24:36.920Z,7.73
2018-12-08T15:27:41.495Z,7.73
2018-12-08T15:30:46.274Z,7.73
2018-12-08T15:34:02.967Z,7.75
2018-12-08T15:40:22.397Z,7.81
2018-12-08T15:43:27.336Z,7.88
2018-12-08T15:46:31.980Z,7.94
2018-12-08T15:49:40.810Z,8.00
2018-12-08T15:52:45.682Z,7.99
2018-12-08T15:55:52.399Z,7.92
2018-12-08T15:58:57.103Z,7.90
2018-12-08T16:05:19.949Z,7.89
2018-12-08T16:08:24.630Z,7.93
2018-12-08T16:11:29.399Z,7.94
2018-12-08T16:14:36.737Z,7.95
2018-12-08T16:17:43.098Z,8.01
2018-12-08T16:20:50.348Z,8.06
2018-12-08T16:23:57.803Z,8.00
2018-12-08T16:27:03.917Z,7.84
2018-12-08T16:30:12.277Z,7.73
2018-12-08T16:33:20.199Z,7.74
2018-12-08T16:36:24.846Z,7.46
2018-12-08T16:39:29.714Z,7.13
2018-12-08T16:42:35.422Z,6.89
2018-12-08T16:45:41.554Z,6.70
2018-12-08T16:48:54.857Z,6.68
2018-12-08T16:51:59.958Z,6.77
2018-12-08T16:55:05.321Z,6.58
2018-12-08T16:58:10.227Z,6.52
2018-12-08T17:01:14.811Z,6.52
2018-12-08T17:04:19.949Z,6.52
2018-12-08T17:07:24.931Z,6.63
2018-12-08T17:10:29.534Z,6.67
2018-12-08T17:13:34.198Z,6.80
2018-12-08T17:16:39.001Z,6.92
2018-12-08T17:19:43.689Z,7.05
2018-12-08T17:22:48.343Z,7.12
2018-12-08T17:25:53.027Z,7.19
2018-12-08T17:28:59.182Z,7.23
2018-12-08T17:32:04.223Z,7.23
2018-12-08T17:35:09.086Z,7.29
2018-12-08T17:38:13.533Z,7.30
2018-12-08T17:41:18.359Z,7.24
2018-12-08T17:44:23.298Z,6.82
2018-12-08T17:47:28.196Z,6.77
2018-12-08T17:50:32.874Z,6.82
2018-12-08T17:53:37.654Z,6.73
2018-12-08T17:56:44.043Z,6.56
2018-12-08T17:59:48.676Z,6.42
2018-12-08T18:02:54.292Z,6.30
2018-12-08T18:05:59.937Z,6.22
2018-12-08T18:09:08.235Z,6.31
2018-12-08T18:12:13.002Z,6.45
2018-12-08T18:15:17.854Z,6.55
2018-12-08T18:18:22.732Z,6.61
2018-12-08T18:21:27.469Z,6.60
2018-12-08T18:24:32.179Z,6.61
2018-12-08T18:27:38.121Z,6.62
2018-12-08T18:30:43.232Z,6.66
2018-12-08T18:33:47.612Z,6.70
2018-12-08T18:36:52.763Z,6.75
2018-12-08T18:39:57.303Z,6.88
2018-12-08T18:43:01.755Z,6.97
2018-12-08T18:46:06.278Z,7.07
2018-12-08T18:49:10.685Z,7.20
2018-12-08T18:52:15.087Z,7.22
2018-12-08T18:55:19.509Z,7.14
2018-12-08T18:58:24.048Z,7.20
2018-12-08T19:01:28.544Z,7.13
2018-12-08T19:04:32.944Z,7.09
2018-12-08T19:07:37.591Z,7.11
2018-12-08T19:10:43.264Z,7.06
2018-12-08T19:13:47.821Z,7.04
2018-12-08T19:16:52.634Z,7.06
2018-12-08T19:19:57.530Z,7.13
2018-12-08T19:23:02.589Z,7.17
2018-12-08T19:26:07.444Z,7.19
2018-12-08T19:29:12.489Z,7.18
2018-12-08T19:32:17.222Z,7.21
2018-12-08T19:35:22.152Z,7.19
2018-12-08T19:38:30.986Z,7.23
2018-12-08T19:41:38.411Z,7.27
2018-12-08T19:44:46.398Z,7.26
2018-12-08T19:47:51.541Z,7.23
2018-12-08T19:50:56.659Z,7.25
2018-12-08T19:54:04.546Z,7.28
2018-12-08T19:57:09.784Z,7.26
2018-12-08T20:00:15.657Z,7.24
2018-12-08T20:03:23.411Z,7.22
2018-12-08T20:06:29.450Z,7.13
2018-12-08T20:09:34.534Z,7.10
2018-12-08T20:12:40.406Z,7.05
2018-12-08T20:15:47.210Z,7.09
2018-12-08T20:18:52.275Z,7.10
2018-12-08T20:22:00.653Z,7.13
2018-12-08T20:25:10.455Z,7.17
2018-12-08T20:28:15.262Z,7.20
2018-12-08T20:31:20.719Z,7.18
2018-12-08T20:34:26.453Z,7.16
2018-12-08T20:37:32.694Z,7.10
2018-12-08T20:40:44.760Z,7.05
2018-12-08T20:43:50.772Z,7.02
2018-12-08T20:46:55.512Z,7.01
2018-12-08T20:50:00.025Z,7.04
2018-12-08T20:53:04.852Z,6.94
2018-12-08T20:56:10.520Z,7.00
2018-12-08T20:59:15.165Z,7.05
2018-12-08T21:02:19.808Z,7.08
2018-12-08T21:05:24.610Z,7.19
2018-12-08T21:08:29.364Z,7.16
2018-12-08T21:11:34.425Z,7.22
2018-12-08T21:14:40.316Z,7.12
2018-12-08T21:17:47.222Z,7.17
2018-12-08T21:20:52.357Z,7.12
2018-12-08T21:24:00.982Z,7.06
2018-12-08T21:30:22.862Z,7.01
2018-12-08T21:33:28.489Z,7.10
2018-12-08T21:36:34.010Z,7.16
2018-12-08T21:39:39.525Z,7.15
2018-12-08T21:42:44.346Z,7.27
2018-12-08T21:45:49.062Z,7.26
2018-12-08T21:48:57.879Z,7.27
2018-12-08T21:52:02.638Z,7.29
2018-12-08T21:55:07.530Z,7.31
2018-12-08T21:58:13.590Z,7.26
2018-12-08T22:01:18.244Z,7.26
2018-12-08T22:04:23.058Z,7.29
2018-12-08T22:07:28.056Z,7.26
2018-12-08T22:10:32.809Z,7.31
2018-12-08T22:13:38.313Z,7.42
2018-12-08T22:16:51.474Z,7.39
2018-12-08T22:19:56.033Z,7.44
2018-12-08T22:23:00.632Z,7.46
2018-12-08T22:26:05.323Z,7.38
2018-12-08T22:29:10.171Z,7.45
2018-12-08T22:32:14.718Z,7.47
2018-12-08T22:35:19.273Z,7.42
2018-12-08T22:38:23.952Z,7.39
2018-12-08T22:41:28.945Z,7.37
2018-12-08T22:44:34.482Z,7.38
2018-12-08T22:47:39.115Z,7.41
2018-12-08T22:50:44.451Z,7.38
2018-12-08T22:53:49.428Z,7.32
2018-12-08T23:00:24.560Z,7.29
2018-12-08T23:03:29.292Z,7.29
2018-12-08T23:06:34.268Z,7.25
2018-12-08T23:09:38.967Z,7.23
2018-12-08T23:12:44.919Z,7.26
2018-12-08T23:15:50.176Z,7.24
2018-12-08T23:18:55.912Z,7.27
2018-12-08T23:22:00.969Z,7.22
2018-12-08T23:25:05.884Z,7.23
2018-12-08T23:28:10.821Z,7.22
2018-12-08T23:31:15.338Z,7.13
2018-12-08T23:34:20.430Z,7.09
2018-12-08T23:37:25.086Z,7.06
2018-12-08T23:40:29.723Z,7.04
2018-12-08T23:43:34.246Z,7.05
2018-12-08T23:46:39.435Z,7.07
2018-12-08T23:49:44.488Z,7.10
2018-12-08T23:52:49.388Z,7.09
2018-12-08T23:55:54.229Z,7.03
2018-12-08T23:58:59.658Z,7.06
